Timeline UpdatesTrip UpdatesNews PostsPvt PostsTravel TipsAdmin PostsConv PostsFollowed PostsChat RequestsBlog PostsPNR Posts

Disclaimer
Search
 
 
Fri Aug 22, 2014 01:32:37 ISTHomeTrainsΣChainsAtlasPNRForumGalleryNewsFAQTripsMembersLoginFeedback
No Recent News for this Train
Other Trains in the News **new
Latest...
.
Sat Feb 02, 2013 (04:10PM)
⇐ Return Journey: Train# 51187

51188/Katni - Bhusaval Passenger (UnReserved)

Oct 05 2013 (11:32PM)
Change Departure Station:
Change Arrival Station:
Post a Train Travel TipPost a Train Travel Tip **new
Post a Comment/Question/Picture/VideoPost a Comment/Question/Picture/Video
Pantry/Catering
✕ NO Pantry Car
✕ NO Catering
RSA - Rake Sharing
Rake/Coach Composition
Loco
KTE-ET: KTE/ET WDM-3A ET-BSL: BSL/ET WAP-4
News    PNR    Forum    Time-Table    Availability    Fare Chart    Map    Arr/Dep History    Trips    Gallery    ΣChains    X/O    Timeline    
Travel Time: 7h 0m    23 halts    Distance: 199 km    Avg Speed: 28 km/hr
Type: Passenger
Zone: CR/Central
Departs @ 10:00 (Avg 4h 11m late)
Platform# 1
SMTWTFS
Khirkiya/KKN 
Arrives @ 17:00 (Avg 3h 24m late)
Platform# 6
SMTWTFS
Bhusaval Junction/BSL 

23 halts. 24 intermediate Stations between Khirkiya and Bhusaval Junction

Show ALL intermediate Stations  Show Old Time-Table

#CodeStation NameX/OArrivesAvgDepartsAvgHaltPFDay#KmSpeedElevZoneAddress
1KTEKatni Junction (6)  -22:20+4351-443.231387mWCRKatni, Madhya Pradesh
2MDRRMadhavnagar Road (2)X  22:30-22:31-1m--1-438.048398mWCRMadhavnagar, Madhya Pradesh
3NWRNiwar (2)X  22:41+2:3422:42+2:411m--1-430.052412mWCRPipraundh, Madhya Pradesh
4SNRRSansarpur (2)  22:51-22:52-1m--1-422.259436mWCRNational Highway 7, Madhya Pradesh
5SBDSleemanabad Road (2)  22:59+1:5423:00+1:541m--1-415.357434mWCRSleemanabad, Madhya Pradesh
6DDCEDundi (2)  23:10+2:1323:11+2:251m--1-405.860415mWCRDundi, Madhya Pradesh
7SHRSihora Road (2)X  23:26+1:1823:28+1:192m--1-390.961388mWCRJabalpur, Madhya Pradesh
8GSPRGosalpur (2)X  23:39+2:5323:40+2:541m--1-379.857396mWCRJabalpur, Madhya Pradesh
9DOEDeori (2)  23:51+2:5223:52+2:531m--1-369.348392mWCRJabalpur, Madhya Pradesh
10ADTLAdhartal (2)X  00:03+2:1300:04+2:191m--2-360.530393mWCRJabalpur, Madhya Pradesh
11JBPJabalpur Junction (4)X  00:20+4600:30+5310m12-352.553416mWCRJabalpur, Madhya Pradesh
12MMLMadan Mahal (3)  00:34+3:3700:36+3:372m12-349.056428mWCRJabalpur, Madhya Pradesh
13BRGTBheraghat (2)X  00:50+3:2300:51+3:501m--2-335.961389mWCRBheraghat, Madhya Pradesh
14BHTNBhitoni (2)X  01:04+3:4901:05+3:571m--2-322.858377mWCRJabalpur, Madhya Pradesh
15BMRBikrampur (2)  01:17+3:5701:18+3:581m--2-311.265353mWCRBikrampur Dist Narsingpur., Madhya Pradesh
16SRIDShridham (3)XO  01:29+3:1301:31+3:132m32-299.354373mWCRShridham, Madhya Pradesh
17KKBKarak Bel (2)  01:48+3:4101:49+3:421m--2-284.029375mWCRKarak Bel, Madhya Pradesh
18BELDBelkhera (2)  01:58+3:3801:59+3:411m--2-279.633367mWCRState Highway 22, Madhya Pradesh
19GPCGhatpindrai (2)  02:09+3:3902:10+3:431m--2-274.135366mWCRGhatpindra, Madhya Pradesh
20NUNarsinghpur (2)X  02:20+3:1202:22+3:142m22-268.370365mWCRNarsimhapur, Madhya Pradesh
21KYKareli (2)X  02:36+2:5102:37+2:551m22-251.945361mWCRKareli, Madhya Pradesh
22KFYKarapgaon (2)XO  02:48-02:49-1m--2-243.645363mWCRNational Highway 26, Madhya Pradesh
23BNEBohani (2)X  02:58+3:5202:59+4:001m--2-236.978361mWCRNarsinghpur, Madhya Pradesh
24GARGadarwara (2)X  03:09+3:0803:10+3:121m22-223.956352mWCRNarsinghpur, Madhya Pradesh
25SCKRSalichauka Road (2)X  03:25+4:1303:26+4:401m--2-210.061355mWCRGadarwara, Madhya Pradesh
26JHTJunehta (2)X  03:36-03:37-1m--2-199.955353mWCRState Highway 22, Madhya Pradesh
27BKHBankhedi (2)X  03:44+4:3503:46+4:432m--2-193.567351mWCRBankheri, Madhya Pradesh
28PPIPipariya (3)X  04:03+3:2504:05+3:252m32-174.640338mWCRPiparia, Madhya Pradesh
29SXFSobhapur (2)X  04:18-04:19-1m--2-165.945338mWCRState Highway 22, Madhya Pradesh
30SGPSohagpur (2)X  04:31+4:3604:33+4:362m--2-156.943340mWCRSohagpur, Madhya Pradesh
31GMDGuramkhedi (2)  04:47+4:3104:48+4:321m--2-146.849337mWCRGuramkhedi, Madhya Pradesh
32BGTABagratawa (2)  05:04+4:2805:05+4:331m--2-133.829338mWCRBagra Tawa, Madhya Pradesh
33SQLSontalai (2)X  05:19+4:3005:20+4:311m--2-126.927329mWCRItarsi, Madhya Pradesh
34GROGurra (2)X  05:40+4:2005:41+4:221m--2-117.916327mWCRItarsi, Madhya Pradesh
35ETItarsi Junction (7)  06:20+3:3806:45+3:3925m--2-107.357329mWCRItarsi 461111, Madhya Pradesh
36DRADularia (2)  06:58+4:3206:59+4:361m--2-95.142318mWCRItarsi, Madhya Pradesh
37KTZKhutwansa (2)X  07:07-07:08-1m--2-89.549325mWCRSH 15, Madhya Pradesh
38DKIDharamkundi (2)O  07:17+4:3107:18+4:321m--2-82.131314mWCRSH 15, Madhya Pradesh
39BPFBanapura (2)  07:34+4:2407:35+4:291m--2-73.949314mWCRBanapura, Madhya Pradesh
40BIFBhaironpur (2)O  07:44+4:2707:45+4:281m--2-66.649322mWCRSH 15, Madhya Pradesh
41PGLPagdhal (2)X  07:54+4:2807:55+4:401m--2-59.341317mWCRPagdhal, Madhya Pradesh
42CGOChhidgaon (2)X  08:01-08:02-1m--2-55.126309mWCRHarda, Madhya Pradesh
43TBNTimarni (2)  08:24+4:3808:25+4:391m--2-45.747308mWCRTimarni, Madhya Pradesh
44CRKCharkhera (2)O  08:34+4:2508:35+4:311m--2-38.623298mWCRBarkalan, Madhya Pradesh
45HDHarda (3)X  08:53+4:3208:55+4:322m--2-31.564289mWCRHarda, Madhya Pradesh
46PALPalasner (2)  09:02+4:2309:03+4:241m--2-24.139296mWCRHarda, Madhya Pradesh
47MUOMasangaon (2)XO  09:12+4:2009:13+4:211m--2-18.212303mWCRSH 15, Madhya Pradesh
48BRIBhiringi (2)  09:39+4:0109:40+4:081m--2-13.0100294mWCRSH 15, Madhya Pradesh
49KROKurawan (2)X  09:44-09:45-1m--2-6.429297mWCRSH 15, Madhya Pradesh
50KKN»Khirkiya (2)»O  09:58+4:0810:00+4:112m120.039281mWCRSH 15, Madhya Pradesh
51DRHIDagarhkeri (2)XO  10:17+4:0010:18+4:051m--210.920274mWCRState Highway 15, Madhya Pradesh
52BRUDBarud (2)X  10:47+3:4710:48+3:591m--220.576273mWCRKhandwa, Madhya Pradesh
53CAERChhanera (2)XO  10:56+4:0110:58+4:052m--230.721283mWCRChhanera, Madhya Pradesh
54CKKDCharkheda Khurd (2)  11:17+3:5511:18+3:571m--237.523274mWCRKhandwa, Madhya Pradesh
55SGBJSurgaon Banjari (2)  11:47+3:3711:48+3:491m--248.671298mWCRKhandwa, Madhya Pradesh
56TLVTalvadiya (2)O  11:58+3:5312:00+4:002m--260.456308mWCRKhandwa, Madhya Pradesh
57MTAMathela (2)XO  12:09+3:5912:10+3:591m--268.76322mWCRKhandwa, Madhya Pradesh
58KNWKhandwa Junction (5)  13:20+3:2013:30+3:2010m--276.144310mCRKhandwa, Madhya Pradesh
59BRGJBargaon Gujar (2)  13:37+3:0113:38+3:011m--281.260316mCRKhandwa, Madhya Pradesh
60BMABagmar (2)X  13:44+3:0213:45+3:051m--287.266335mCRState Highway 27, Madhya Pradesh
61KDKKohdad (2)X  13:49+3:5413:50+3:541m--291.657344mCRState Highway 15, Madhya Pradesh
62DGNDongargaon (2)  13:58+3:5313:59+3:581m1299.258373mCRBorgaon, Madhya Pradesh
63SXASagphata (2)O  14:07+4:0014:08+4:001m--2106.951350mCRKhandwa, Madhya Pradesh
64MWAMandwa (2)X  14:15+3:5914:16+3:591m--2112.944317mCRState Highway 27, Madhya Pradesh
65NPNRNepanagar (2)  14:24+3:3314:26+3:342m--2118.753289mCRState Highway 27, Madhya Pradesh
66CDIChandni (2)  14:34+4:0514:35+4:051m--2125.877276mCRNepanagar Rd, Madhya Pradesh
67AGQAsirgarh Road (2)X  14:43+4:0614:44+4:061m--2136.067259mCRState Highway 27, Madhya Pradesh
68BAUBurhanpur (2)X  14:52+3:4014:55+3:403m12145.062269mCRBurhanpur, Madhya Pradesh
69WGAWaghoda  15:05+4:0915:06+4:141m--2155.260259mCRChorwad, Maharashtra
70RVRaver (2)X  15:16+4:1315:18+4:192m--2165.268242mCRJalgaon, Maharashtra
71NBNimbhoraX  15:27+4:4315:28+4:431m--2175.358229mCRJalgaon, Maharashtra
72SAVSavda (2)X  15:37+4:2015:38+4:231m--2184.058220mCRSavda, Maharashtra
73DSKDuskheda (2)X  15:47+4:2215:48+4:481m--2192.76213mCRDuskheda Station, Maharashtra
74BSL•Bhusaval Junction (8)•  17:00+3:24-62199.5-208mCRBhusaval 425201, Maharashtra
Scroll to Top
Scroll to Bottom